createdAt,value
2023-10-09T00:06:18.045Z,2.42
2023-10-09T00:13:31.595Z,2.40
2023-10-09T00:20:40.597Z,2.35
2023-10-09T00:27:43.663Z,2.53
2023-10-09T00:34:45.420Z,2.40
2023-10-09T00:41:47.342Z,2.33
2023-10-09T00:48:49.649Z,2.13
2023-10-09T00:55:56.838Z,2.70
2023-10-09T01:03:23.088Z,2.35
2023-10-09T01:10:26.008Z,2.45
2023-10-09T01:17:36.747Z,2.70
2023-10-09T01:24:40.058Z,2.30
2023-10-09T01:31:47.829Z,2.63
2023-10-09T01:38:51.449Z,2.30
2023-10-09T01:45:53.240Z,2.40
2023-10-09T01:52:54.988Z,2.50
2023-10-09T01:59:58.892Z,2.47
2023-10-09T02:07:00.647Z,2.55
2023-10-09T02:14:03.062Z,2.53
2023-10-09T02:21:04.512Z,2.35
2023-10-09T02:28:07.047Z,2.70
2023-10-09T02:35:29.317Z,2.55
2023-10-09T02:42:31.898Z,2.50
2023-10-09T02:49:35.172Z,2.70
2023-10-09T02:56:48.631Z,2.75
2023-10-09T03:03:51.188Z,2.65
2023-10-09T03:10:52.889Z,2.90
2023-10-09T03:17:54.563Z,3.15
2023-10-09T03:24:56.693Z,2.88
2023-10-09T03:31:58.545Z,3.42
2023-10-09T03:39:00.824Z,2.72
2023-10-09T03:46:04.579Z,3.20
2023-10-09T03:53:08.380Z,2.78
2023-10-09T04:00:17.147Z,3.13
2023-10-09T04:07:18.818Z,3.05
2023-10-09T04:14:27.129Z,2.78
2023-10-09T04:21:38.065Z,2.92
2023-10-09T04:28:43.085Z,3.67
2023-10-09T04:36:04.626Z,3.75
2023-10-09T04:43:10.807Z,3.50
2023-10-09T04:50:13.010Z,3.45
2023-10-09T04:57:19.048Z,3.40
2023-10-09T05:04:38.896Z,3.38
2023-10-09T05:11:52.730Z,3.50
2023-10-09T05:18:58.806Z,4.07
2023-10-09T05:26:20.777Z,3.28
2023-10-09T05:33:40.544Z,3.20
2023-10-09T05:40:46.575Z,4.00
2023-10-09T05:47:58.958Z,3.50
2023-10-09T05:55:19.165Z,3.15
2023-10-09T06:02:45.572Z,3.13
2023-10-09T06:09:58.825Z,3.17
2023-10-09T06:17:23.478Z,3.45
2023-10-09T06:24:25.178Z,3.15
2023-10-09T06:31:49.550Z,2.70
2023-10-09T06:39:14.100Z,3.17
2023-10-09T06:46:28.072Z,3.00
2023-10-09T06:53:49.827Z,2.78
2023-10-09T07:00:54.292Z,2.90
2023-10-09T07:07:56.956Z,2.78
2023-10-09T07:15:24.669Z,3.25
2023-10-09T07:22:30.701Z,3.22
2023-10-09T07:29:44.216Z,2.92
2023-10-09T07:36:49.418Z,2.80
2023-10-09T07:43:51.959Z,2.65
2023-10-09T07:50:58.480Z,3.60
2023-10-09T07:58:11.850Z,3.33
2023-10-09T08:05:23.854Z,3.90
2023-10-09T08:13:00.770Z,3.38
2023-10-09T08:20:12.611Z,3.70
2023-10-09T08:27:32.670Z,3.63
2023-10-09T08:41:54.390Z,3.47
2023-10-09T08:49:06.153Z,3.25
2023-10-09T08:56:08.958Z,3.60
2023-10-09T09:03:10.847Z,3.00
2023-10-09T09:10:18.743Z,3.60
2023-10-09T09:17:24.845Z,3.65
2023-10-09T09:24:26.594Z,3.72
2023-10-09T09:31:28.443Z,3.35
2023-10-09T09:38:36.547Z,3.72
2023-10-09T09:45:38.837Z,3.55
2023-10-09T09:52:40.991Z,3.33
2023-10-09T09:59:51.134Z,3.58
2023-10-09T10:06:52.985Z,3.65
2023-10-09T10:13:57.642Z,3.47
2023-10-09T10:21:18.347Z,3.78
2023-10-09T10:28:30.431Z,3.35
2023-10-09T10:35:41.100Z,3.40
2023-10-09T10:43:07.007Z,3.00
2023-10-09T10:50:35.390Z,3.70
2023-10-09T10:57:55.284Z,3.35
2023-10-09T11:04:57.508Z,3.25
2023-10-09T11:12:22.652Z,3.45
2023-10-09T11:19:33.275Z,3.28
2023-10-09T11:26:41.379Z,3.97
2023-10-09T11:33:47.610Z,3.65
2023-10-09T11:40:55.251Z,4.22
2023-10-09T11:47:59.108Z,4.45
2023-10-09T11:55:00.873Z,4.20
2023-10-09T12:02:06.484Z,4.07
2023-10-09T12:09:17.721Z,4.05
2023-10-09T12:16:19.482Z,4.80
2023-10-09T12:23:22.441Z,4.45
2023-10-09T12:30:27.960Z,4.47
2023-10-09T12:37:32.420Z,4.22
2023-10-09T12:44:35.479Z,4.50
2023-10-09T12:51:37.367Z,4.90
2023-10-09T12:58:42.699Z,5.22
2023-10-09T13:05:53.065Z,5.18
2023-10-09T13:12:57.507Z,5.53
2023-10-09T13:19:59.170Z,5.00
2023-10-09T13:27:00.851Z,5.32
2023-10-09T13:34:04.582Z,5.40
2023-10-09T13:41:08.415Z,5.50
2023-10-09T13:48:13.604Z,6.38
2023-10-09T13:55:18.416Z,5.50
2023-10-09T14:02:22.353Z,5.45
2023-10-09T14:09:39.044Z,5.10
2023-10-09T14:16:44.331Z,5.93
2023-10-09T14:23:48.114Z,5.63
2023-10-09T14:30:57.727Z,6.05
2023-10-09T14:38:02.368Z,5.15
2023-10-09T14:45:09.280Z,5.45
2023-10-09T14:52:11.436Z,5.03
2023-10-09T14:59:13.242Z,5.70
2023-10-09T15:06:16.034Z,5.43
2023-10-09T15:13:17.673Z,5.88
2023-10-09T15:20:19.472Z,5.97
2023-10-09T15:27:21.128Z,5.53
2023-10-09T15:34:23.013Z,6.63
2023-10-09T15:41:24.658Z,5.80
2023-10-09T15:48:26.335Z,5.97
2023-10-09T15:55:28.065Z,5.38
2023-10-09T16:02:29.751Z,5.55
2023-10-09T16:09:35.982Z,5.13
2023-10-09T16:16:42.819Z,5.72
2023-10-09T16:23:44.841Z,4.65
2023-10-09T16:30:46.586Z,5.32
2023-10-09T16:37:50.597Z,5.20
2023-10-09T16:44:52.308Z,6.03
2023-10-09T16:51:56.249Z,5.40
2023-10-09T16:58:58.065Z,5.13
2023-10-09T17:06:05.140Z,6.35
2023-10-09T17:13:09.101Z,6.00
2023-10-09T17:20:11.846Z,5.88
2023-10-09T17:27:18.800Z,5.18
2023-10-09T17:34:24.041Z,5.70
2023-10-09T17:41:25.758Z,5.70
2023-10-09T17:48:27.595Z,5.72
2023-10-09T17:55:30.834Z,5.40
2023-10-09T18:02:32.956Z,5.75
2023-10-09T18:09:34.742Z,6.35
2023-10-09T18:16:38.712Z,6.57
2023-10-09T18:23:46.246Z,6.65
2023-10-09T18:30:50.464Z,6.35
2023-10-09T18:37:57.971Z,6.18
2023-10-09T18:44:59.740Z,5.95
2023-10-09T18:52:01.601Z,5.72
2023-10-09T18:59:09.821Z,6.32
2023-10-09T19:06:13.680Z,6.55
2023-10-09T19:13:15.511Z,6.18
2023-10-09T19:20:18.282Z,6.13
2023-10-09T19:27:26.509Z,5.60
2023-10-09T19:34:28.106Z,6.28
2023-10-09T19:41:32.320Z,7.32
2023-10-09T19:48:36.457Z,6.07
2023-10-09T19:55:41.427Z,6.65
2023-10-09T20:02:43.356Z,6.53
2023-10-09T20:09:46.744Z,7.00
2023-10-09T20:16:49.426Z,6.53
2023-10-09T20:23:51.738Z,6.97
2023-10-09T20:30:54.165Z,6.47
2023-10-09T20:37:56.892Z,7.60
2023-10-09T20:44:59.447Z,7.90
2023-10-09T20:52:01.634Z,8.00
2023-10-09T20:59:03.479Z,8.43
2023-10-09T21:06:08.514Z,7.47
2023-10-09T21:13:10.256Z,8.18
2023-10-09T21:20:19.138Z,8.85
2023-10-09T21:27:20.814Z,7.97
2023-10-09T21:34:23.006Z,7.68
2023-10-09T21:41:27.192Z,8.13
2023-10-09T21:48:29.018Z,8.13
2023-10-09T21:55:32.626Z,8.70
2023-10-09T22:02:34.464Z,9.23
2023-10-09T22:09:36.695Z,8.85
2023-10-09T22:16:41.323Z,9.65
2023-10-09T22:23:54.025Z,7.60
2023-10-09T22:30:56.952Z,7.93
2023-10-09T22:37:59.499Z,7.80
2023-10-09T22:45:01.437Z,8.07
2023-10-09T22:52:04.444Z,7.85
2023-10-09T22:59:21.519Z,7.72
2023-10-09T23:06:34.650Z,8.07
2023-10-09T23:13:36.800Z,7.28
2023-10-09T23:20:50.400Z,7.90
2023-10-09T23:27:51.987Z,7.90
2023-10-09T23:34:54.015Z,7.25
2023-10-09T23:42:03.274Z,9.07
2023-10-09T23:49:08.365Z,7.97
2023-10-09T23:56:43.008Z,7.70
